sensor_id;sensor_type;location;lat;lon;timestamp;pressure;altitude;pressure_sealevel;temperature;humidity
42111;BME280;27766;52.174;5.456;2023-05-19T00:02:12;102724.03;;;9.39;100.00
42111;BME280;27766;52.174;5.456;2023-05-19T00:04:41;102727.34;;;9.37;100.00
42111;BME280;27766;52.174;5.456;2023-05-19T00:07:10;102714.81;;;9.28;100.00
42111;BME280;27766;52.174;5.456;2023-05-19T00:09:37;102719.09;;;9.27;100.00
42111;BME280;27766;52.174;5.456;2023-05-19T00:12:04;102710.63;;;9.13;100.00
42111;BME280;27766;52.174;5.456;2023-05-19T00:14:32;102718.50;;;9.16;100.00
42111;BME280;27766;52.174;5.456;2023-05-19T00:16:59;102721.09;;;9.16;100.00
42111;BME280;27766;52.174;5.456;2023-05-19T00:19:27;102713.19;;;9.13;100.00
42111;BME280;27766;52.174;5.456;2023-05-19T00:21:58;102710.28;;;9.07;100.00
42111;BME280;27766;52.174;5.456;2023-05-19T00:24:25;102699.31;;;9.11;100.00
42111;BME280;27766;52.174;5.456;2023-05-19T00:26:52;102699.56;;;9.16;100.00
42111;BME280;27766;52.174;5.456;2023-05-19T00:29:20;102686.53;;;8.98;100.00
42111;BME280;27766;52.174;5.456;2023-05-19T00:31:47;102697.28;;;9.06;100.00
42111;BME280;27766;52.174;5.456;2023-05-19T00:34:14;102700.66;;;9.05;100.00
42111;BME280;27766;52.174;5.456;2023-05-19T00:36:44;102704.06;;;9.03;100.00
42111;BME280;27766;52.174;5.456;2023-05-19T00:39:14;102697.84;;;9.00;100.00
42111;BME280;27766;52.174;5.456;2023-05-19T00:41:41;102686.69;;;9.01;100.00
42111;BME280;27766;52.174;5.456;2023-05-19T00:44:08;102693.31;;;8.96;100.00
42111;BME280;27766;52.174;5.456;2023-05-19T00:46:36;102694.75;;;8.91;100.00
42111;BME280;27766;52.174;5.456;2023-05-19T00:49:03;102695.97;;;8.81;100.00
42111;BME280;27766;52.174;5.456;2023-05-19T00:51:31;102692.72;;;8.85;100.00
42111;BME280;27766;52.174;5.456;2023-05-19T00:53:58;102698.63;;;8.82;100.00
42111;BME280;27766;52.174;5.456;2023-05-19T00:56:25;102687.78;;;8.73;100.00
42111;BME280;27766;52.174;5.456;2023-05-19T00:58:53;102696.16;;;8.69;100.00
42111;BME280;27766;52.174;5.456;2023-05-19T01:01:20;102697.78;;;8.67;100.00
42111;BME280;27766;52.174;5.456;2023-05-19T01:03:48;102693.34;;;8.64;100.00
42111;BME280;27766;52.174;5.456;2023-05-19T01:06:16;102686.75;;;8.54;100.00
42111;BME280;27766;52.174;5.456;2023-05-19T01:08:45;102694.41;;;8.53;100.00
42111;BME280;27766;52.174;5.456;2023-05-19T01:11:12;102681.94;;;8.46;100.00
42111;BME280;27766;52.174;5.456;2023-05-19T01:13:40;102704.81;;;8.54;100.00
42111;BME280;27766;52.174;5.456;2023-05-19T01:16:28;102696.13;;;8.52;100.00
42111;BME280;27766;52.174;5.456;2023-05-19T01:22:02;102692.00;;;8.41;100.00
42111;BME280;27766;52.174;5.456;2023-05-19T01:30:29;102687.13;;;8.31;100.00
42111;BME280;27766;52.174;5.456;2023-05-19T01:33:00;102688.38;;;8.22;100.00
42111;BME280;27766;52.174;5.456;2023-05-19T01:35:29;102689.19;;;8.21;100.00
42111;BME280;27766;52.174;5.456;2023-05-19T01:37:58;102684.47;;;8.14;100.00
42111;BME280;27766;52.174;5.456;2023-05-19T01:40:27;102681.97;;;8.16;100.00
42111;BME280;27766;52.174;5.456;2023-05-19T01:42:56;102689.63;;;8.14;100.00
42111;BME280;27766;52.174;5.456;2023-05-19T01:45:26;102681.72;;;8.11;100.00
42111;BME280;27766;52.174;5.456;2023-05-19T01:47:56;102689.19;;;8.06;100.00
42111;BME280;27766;52.174;5.456;2023-05-19T01:50:24;102683.06;;;8.04;100.00
42111;BME280;27766;52.174;5.456;2023-05-19T01:52:52;102682.22;;;8.05;100.00
42111;BME280;27766;52.174;5.456;2023-05-19T01:55:20;102685.63;;;8.04;100.00
42111;BME280;27766;52.174;5.456;2023-05-19T01:58:04;102680.03;;;7.97;100.00
42111;BME280;27766;52.174;5.456;2023-05-19T02:03:31;102669.63;;;7.95;100.00
42111;BME280;27766;52.174;5.456;2023-05-19T02:06:29;102672.09;;;7.93;100.00
42111;BME280;27766;52.174;5.456;2023-05-19T02:09:07;102661.53;;;7.89;100.00
42111;BME280;27766;52.174;5.456;2023-05-19T02:14:49;102677.53;;;7.98;100.00
42111;BME280;27766;52.174;5.456;2023-05-19T02:17:20;102674.06;;;7.98;100.00
42111;BME280;27766;52.174;5.456;2023-05-19T02:19:49;102671.28;;;7.95;100.00
42111;BME280;27766;52.174;5.456;2023-05-19T02:22:17;102677.09;;;7.90;100.00
42111;BME280;27766;52.174;5.456;2023-05-19T02:24:44;102672.53;;;7.86;100.00
42111;BME280;27766;52.174;5.456;2023-05-19T02:27:13;102665.25;;;7.79;100.00
42111;BME280;27766;52.174;5.456;2023-05-19T02:29:40;102656.38;;;7.74;100.00
42111;BME280;27766;52.174;5.456;2023-05-19T02:32:07;102671.19;;;7.78;100.00
42111;BME280;27766;52.174;5.456;2023-05-19T02:34:35;102662.31;;;7.73;100.00
42111;BME280;27766;52.174;5.456;2023-05-19T02:37:02;102659.75;;;7.73;100.00
42111;BME280;27766;52.174;5.456;2023-05-19T02:39:29;102667.19;;;7.68;100.00
42111;BME280;27766;52.174;5.456;2023-05-19T02:42:00;102652.25;;;7.63;100.00
42111;BME280;27766;52.174;5.456;2023-05-19T02:44:28;102647.66;;;7.57;100.00
42111;BME280;27766;52.174;5.456;2023-05-19T02:46:55;102659.81;;;7.59;100.00
42111;BME280;27766;52.174;5.456;2023-05-19T02:49:22;102652.00;;;7.58;100.00
42111;BME280;27766;52.174;5.456;2023-05-19T02:51:52;102656.97;;;7.55;100.00
42111;BME280;27766;52.174;5.456;2023-05-19T02:54:20;102645.78;;;7.54;100.00
42111;BME280;27766;52.174;5.456;2023-05-19T02:56:47;102642.31;;;7.54;100.00
42111;BME280;27766;52.174;5.456;2023-05-19T02:59:14;102650.03;;;7.54;100.00
42111;BME280;27766;52.174;5.456;2023-05-19T03:01:44;102643.81;;;7.50;100.00
42111;BME280;27766;52.174;5.456;2023-05-19T03:04:13;102643.59;;;7.47;100.00
42111;BME280;27766;52.174;5.456;2023-05-19T03:06:40;102625.06;;;7.38;100.00
42111;BME280;27766;52.174;5.456;2023-05-19T03:09:08;102645.13;;;7.43;100.00
42111;BME280;27766;52.174;5.456;2023-05-19T03:11:36;102635.53;;;7.41;100.00
42111;BME280;27766;52.174;5.456;2023-05-19T03:14:03;102632.00;;;7.39;100.00
42111;BME280;27766;52.174;5.456;2023-05-19T03:16:30;102625.75;;;7.35;100.00
42111;BME280;27766;52.174;5.456;2023-05-19T03:18:58;102626.84;;;7.39;100.00
42111;BME280;27766;52.174;5.456;2023-05-19T03:21:26;102619.63;;;7.33;100.00
42111;BME280;27766;52.174;5.456;2023-05-19T03:23:53;102635.44;;;7.39;100.00
42111;BME280;27766;52.174;5.456;2023-05-19T03:26:23;102633.94;;;7.43;100.00
42111;BME280;27766;52.174;5.456;2023-05-19T03:28:50;102622.50;;;7.24;100.00
42111;BME280;27766;52.174;5.456;2023-05-19T03:31:17;102634.72;;;7.27;100.00
42111;BME280;27766;52.174;5.456;2023-05-19T03:33:44;102634.72;;;7.27;100.00
42111;BME280;27766;52.174;5.456;2023-05-19T03:36:12;102632.22;;;7.28;100.00
42111;BME280;27766;52.174;5.456;2023-05-19T03:38:40;102639.31;;;7.33;100.00
42111;BME280;27766;52.174;5.456;2023-05-19T03:41:08;102639.31;;;7.33;100.00
42111;BME280;27766;52.174;5.456;2023-05-19T03:43:35;102633.81;;;7.26;100.00
42111;BME280;27766;52.174;5.456;2023-05-19T03:46:03;102635.66;;;7.29;100.00
42111;BME280;27766;52.174;5.456;2023-05-19T03:48:30;102616.22;;;7.19;100.00
42111;BME280;27766;52.174;5.456;2023-05-19T03:50:57;102623.34;;;7.23;100.00
42111;BME280;27766;52.174;5.456;2023-05-19T03:53:24;102637.59;;;7.18;100.00
42111;BME280;27766;52.174;5.456;2023-05-19T03:55:52;102634.22;;;7.19;100.00
42111;BME280;27766;52.174;5.456;2023-05-19T03:58:19;102627.50;;;7.21;100.00
42111;BME280;27766;52.174;5.456;2023-05-19T04:00:47;102628.22;;;7.19;100.00
42111;BME280;27766;52.174;5.456;2023-05-19T04:03:14;102639.16;;;7.29;100.00
42111;BME280;27766;52.174;5.456;2023-05-19T04:05:41;102636.38;;;7.26;100.00
42111;BME280;27766;52.174;5.456;2023-05-19T04:08:09;102640.66;;;7.26;100.00
42111;BME280;27766;52.174;5.456;2023-05-19T04:10:36;102638.88;;;7.25;100.00
42111;BME280;27766;52.174;5.456;2023-05-19T04:13:03;102636.31;;;7.25;100.00
42111;BME280;27766;52.174;5.456;2023-05-19T04:15:30;102635.22;;;7.21;100.00
42111;BME280;27766;52.174;5.456;2023-05-19T04:17:57;102639.22;;;7.16;100.00
42111;BME280;27766;52.174;5.456;2023-05-19T04:20:25;102642.75;;;7.18;100.00
42111;BME280;27766;52.174;5.456;2023-05-19T04:22:52;102637.19;;;7.25;100.00
42111;BME280;27766;52.174;5.456;2023-05-19T04:25:22;102639.66;;;7.24;100.00
42111;BME280;27766;52.174;5.456;2023-05-19T04:27:54;102639.94;;;7.28;100.00
42111;BME280;27766;52.174;5.456;2023-05-19T04:30:23;102648.56;;;7.29;100.00
42111;BME280;27766;52.174;5.456;2023-05-19T04:32:51;102640.53;;;7.24;100.00
42111;BME280;27766;52.174;5.456;2023-05-19T04:35:18;102646.25;;;7.34;100.00
42111;BME280;27766;52.174;5.456;2023-05-19T04:37:46;102641.91;;;7.33;100.00
42111;BME280;27766;52.174;5.456;2023-05-19T04:40:13;102635.94;;;7.34;100.00
42111;BME280;27766;52.174;5.456;2023-05-19T04:42:40;102642.09;;;7.36;100.00
42111;BME280;27766;52.174;5.456;2023-05-19T04:45:11;102646.38;;;7.35;100.00
42111;BME280;27766;52.174;5.456;2023-05-19T04:47:40;102641.81;;;7.31;100.00
42111;BME280;27766;52.174;5.456;2023-05-19T04:50:08;102643.25;;;7.41;100.00
42111;BME280;27766;52.174;5.456;2023-05-19T04:52:37;102653.31;;;7.51;100.00
42111;BME280;27766;52.174;5.456;2023-05-19T04:55:04;102651.34;;;7.47;100.00
42111;BME280;27766;52.174;5.456;2023-05-19T04:57:32;102655.25;;;7.55;100.00
42111;BME280;27766;52.174;5.456;2023-05-19T04:59:59;102636.44;;;7.56;100.00
42111;BME280;27766;52.174;5.456;2023-05-19T05:02:26;102651.84;;;7.70;100.00
42111;BME280;27766;52.174;5.456;2023-05-19T05:04:58;102653.16;;;7.78;100.00
42111;BME280;27766;52.174;5.456;2023-05-19T05:07:25;102650.16;;;7.85;100.00
42111;BME280;27766;52.174;5.456;2023-05-19T05:09:52;102647.66;;;7.87;100.00
42111;BME280;27766;52.174;5.456;2023-05-19T05:12:20;102642.50;;;7.87;100.00
42111;BME280;27766;52.174;5.456;2023-05-19T05:14:48;102639.56;;;7.96;100.00
42111;BME280;27766;52.174;5.456;2023-05-19T05:17:16;102651.56;;;8.10;100.00
42111;BME280;27766;52.174;5.456;2023-05-19T05:19:43;102644.53;;;8.22;100.00
42111;BME280;27766;52.174;5.456;2023-05-19T05:22:11;102651.47;;;8.23;100.00
42111;BME280;27766;52.174;5.456;2023-05-19T05:24:40;102652.22;;;8.37;100.00
42111;BME280;27766;52.174;5.456;2023-05-19T05:27:08;102629.44;;;8.45;100.00
42111;BME280;27766;52.174;5.456;2023-05-19T05:29:36;102648.78;;;8.68;100.00
42111;BME280;27766;52.174;5.456;2023-05-19T05:32:03;102647.59;;;8.78;100.00
42111;BME280;27766;52.174;5.456;2023-05-19T05:34:31;102647.06;;;8.84;100.00
42111;BME280;27766;52.174;5.456;2023-05-19T05:36:58;102658.22;;;8.99;100.00
42111;BME280;27766;52.174;5.456;2023-05-19T05:39:25;102648.69;;;9.15;100.00
42111;BME280;27766;52.174;5.456;2023-05-19T05:41:54;102649.97;;;9.23;100.00
42111;BME280;27766;52.174;5.456;2023-05-19T05:44:21;102638.97;;;9.27;100.00
42111;BME280;27766;52.174;5.456;2023-05-19T05:46:49;102644.56;;;9.35;100.00
42111;BME280;27766;52.174;5.456;2023-05-19T05:49:16;102664.09;;;9.46;100.00
42111;BME280;27766;52.174;5.456;2023-05-19T05:51:44;102659.25;;;9.53;100.00
42111;BME280;27766;52.174;5.456;2023-05-19T05:54:30;102659.69;;;9.62;100.00
42111;BME280;27766;52.174;5.456;2023-05-19T05:56:58;102661.09;;;9.72;100.00
42111;BME280;27766;52.174;5.456;2023-05-19T05:59:25;102657.09;;;9.78;100.00
42111;BME280;27766;52.174;5.456;2023-05-19T06:01:53;102657.00;;;9.93;100.00
42111;BME280;27766;52.174;5.456;2023-05-19T06:04:20;102662.19;;;10.11;100.00
42111;BME280;27766;52.174;5.456;2023-05-19T06:06:47;102653.91;;;10.19;100.00
42111;BME280;27766;52.174;5.456;2023-05-19T06:09:15;102659.00;;;10.35;100.00
42111;BME280;27766;52.174;5.456;2023-05-19T06:11:42;102656.97;;;10.46;100.00
42111;BME280;27766;52.174;5.456;2023-05-19T06:14:10;102650.50;;;10.56;100.00
42111;BME280;27766;52.174;5.456;2023-05-19T06:16:38;102640.31;;;10.59;100.00
42111;BME280;27766;52.174;5.456;2023-05-19T06:19:06;102655.34;;;10.86;100.00
42111;BME280;27766;52.174;5.456;2023-05-19T06:21:33;102656.44;;;11.11;100.00
42111;BME280;27766;52.174;5.456;2023-05-19T06:24:00;102651.53;;;11.17;100.00
42111;BME280;27766;52.174;5.456;2023-05-19T06:26:27;102655.72;;;11.33;100.00
42111;BME280;27766;52.174;5.456;2023-05-19T06:28:54;102664.47;;;11.56;100.00
42111;BME280;27766;52.174;5.456;2023-05-19T06:31:22;102652.06;;;11.68;100.00
42111;BME280;27766;52.174;5.456;2023-05-19T06:33:49;102656.34;;;11.89;100.00
42111;BME280;27766;52.174;5.456;2023-05-19T06:36:17;102662.97;;;12.02;100.00
42111;BME280;27766;52.174;5.456;2023-05-19T06:38:44;102662.47;;;12.11;100.00
42111;BME280;27766;52.174;5.456;2023-05-19T06:41:11;102659.84;;;12.32;100.00
42111;BME280;27766;52.174;5.456;2023-05-19T06:43:41;102645.78;;;12.49;100.00
42111;BME280;27766;52.174;5.456;2023-05-19T06:46:13;102650.75;;;12.66;100.00
42111;BME280;27766;52.174;5.456;2023-05-19T06:48:40;102654.13;;;12.63;100.00
42111;BME280;27766;52.174;5.456;2023-05-19T06:51:08;102658.50;;;12.87;100.00
42111;BME280;27766;52.174;5.456;2023-05-19T06:53:36;102660.72;;;13.01;100.00
42111;BME280;27766;52.174;5.456;2023-05-19T06:56:03;102651.00;;;13.19;100.00
42111;BME280;27766;52.174;5.456;2023-05-19T06:58:30;102648.91;;;13.33;100.00
42111;BME280;27766;52.174;5.456;2023-05-19T07:00:57;102662.63;;;13.53;100.00
42111;BME280;27766;52.174;5.456;2023-05-19T07:03:25;102665.59;;;13.64;100.00
42111;BME280;27766;52.174;5.456;2023-05-19T07:05:53;102660.03;;;13.79;100.00
42111;BME280;27766;52.174;5.456;2023-05-19T07:08:20;102653.38;;;13.87;100.00
42111;BME280;27766;52.174;5.456;2023-05-19T07:10:48;102660.78;;;14.02;100.00
42111;BME280;27766;52.174;5.456;2023-05-19T07:13:15;102654.56;;;14.24;100.00
42111;BME280;27766;52.174;5.456;2023-05-19T07:15:45;102658.31;;;14.34;100.00
42111;BME280;27766;52.174;5.456;2023-05-19T07:18:15;102659.38;;;14.39;100.00
42111;BME280;27766;52.174;5.456;2023-05-19T07:20:45;102644.59;;;14.38;100.00
42111;BME280;27766;52.174;5.456;2023-05-19T07:23:13;102645.53;;;14.40;100.00
42111;BME280;27766;52.174;5.456;2023-05-19T07:25:43;102655.03;;;14.40;100.00
42111;BME280;27766;52.174;5.456;2023-05-19T07:28:10;102641.78;;;14.32;100.00
42111;BME280;27766;52.174;5.456;2023-05-19T07:30:38;102650.94;;;14.48;100.00
42111;BME280;27766;52.174;5.456;2023-05-19T07:33:05;102651.16;;;14.56;100.00
42111;BME280;27766;52.174;5.456;2023-05-19T07:35:33;102645.19;;;14.59;100.00
42111;BME280;27766;52.174;5.456;2023-05-19T07:38:00;102650.78;;;14.71;100.00
42111;BME280;27766;52.174;5.456;2023-05-19T07:40:28;102664.44;;;14.93;100.00
42111;BME280;27766;52.174;5.456;2023-05-19T07:42:55;102663.06;;;15.04;100.00
42111;BME280;27766;52.174;5.456;2023-05-19T07:45:22;102659.09;;;15.18;100.00
42111;BME280;27766;52.174;5.456;2023-05-19T07:47:51;102656.78;;;15.29;96.67
42111;BME280;27766;52.174;5.456;2023-05-19T07:50:19;102661.44;;;15.40;92.52
42111;BME280;27766;52.174;5.456;2023-05-19T07:52:47;102651.28;;;15.50;87.35
42111;BME280;27766;52.174;5.456;2023-05-19T07:55:15;102658.25;;;15.51;86.80
42111;BME280;27766;52.174;5.456;2023-05-19T07:57:45;102645.09;;;15.47;86.57
42111;BME280;27766;52.174;5.456;2023-05-19T08:00:15;102656.41;;;15.47;82.25
42111;BME280;27766;52.174;5.456;2023-05-19T08:02:43;102651.03;;;15.41;87.63
42111;BME280;27766;52.174;5.456;2023-05-19T08:05:11;102638.13;;;15.47;85.77
42111;BME280;27766;52.174;5.456;2023-05-19T08:07:42;102642.59;;;15.51;79.97
42111;BME280;27766;52.174;5.456;2023-05-19T08:10:10;102634.28;;;15.66;80.99
42111;BME280;27766;52.174;5.456;2023-05-19T08:12:37;102631.97;;;15.79;78.39
42111;BME280;27766;52.174;5.456;2023-05-19T08:15:05;102624.09;;;15.77;72.96
42111;BME280;27766;52.174;5.456;2023-05-19T08:17:33;102632.78;;;15.76;72.01
42111;BME280;27766;52.174;5.456;2023-05-19T08:20:00;102627.81;;;15.86;73.24
42111;BME280;27766;52.174;5.456;2023-05-19T08:22:27;102637.09;;;16.09;79.08
42111;BME280;27766;52.174;5.456;2023-05-19T08:24:54;102626.06;;;16.23;66.45
42111;BME280;27766;52.174;5.456;2023-05-19T08:27:22;102621.31;;;16.43;61.60
42111;BME280;27766;52.174;5.456;2023-05-19T08:29:50;102623.31;;;16.56;58.70
42111;BME280;27766;52.174;5.456;2023-05-19T08:32:17;102615.66;;;16.64;58.09
42111;BME280;27766;52.174;5.456;2023-05-19T08:34:44;102617.56;;;16.71;56.85
42111;BME280;27766;52.174;5.456;2023-05-19T08:37:13;102614.28;;;16.82;57.04
42111;BME280;27766;52.174;5.456;2023-05-19T08:39:41;102610.16;;;16.93;54.79
42111;BME280;27766;52.174;5.456;2023-05-19T08:42:09;102614.53;;;16.92;51.96
42111;BME280;27766;52.174;5.456;2023-05-19T08:44:38;102598.84;;;16.94;53.34
42111;BME280;27766;52.174;5.456;2023-05-19T08:47:07;102603.25;;;16.95;52.14
42111;BME280;27766;52.174;5.456;2023-05-19T08:49:44;102603.13;;;16.92;53.01
42111;BME280;27766;52.174;5.456;2023-05-19T08:55:08;102596.88;;;16.84;49.63
42111;BME280;27766;52.174;5.456;2023-05-19T08:57:35;102596.84;;;16.81;47.92
42111;BME280;27766;52.174;5.456;2023-05-19T09:00:04;102591.44;;;16.73;48.81
42111;BME280;27766;52.174;5.456;2023-05-19T09:02:37;102592.47;;;16.81;47.87
42111;BME280;27766;52.174;5.456;2023-05-19T09:05:25;102585.66;;;16.89;47.54
42111;BME280;27766;52.174;5.456;2023-05-19T09:07:53;102585.25;;;17.14;48.35
42111;BME280;27766;52.174;5.456;2023-05-19T09:10:21;102589.06;;;17.31;47.86
42111;BME280;27766;52.174;5.456;2023-05-19T09:12:48;102586.56;;;17.37;46.21
42111;BME280;27766;52.174;5.456;2023-05-19T09:15:16;102580.41;;;17.34;45.72
42111;BME280;27766;52.174;5.456;2023-05-19T09:17:47;102582.06;;;17.29;47.53
42111;BME280;27766;52.174;5.456;2023-05-19T09:20:16;102580.53;;;17.42;48.10
42111;BME280;27766;52.174;5.456;2023-05-19T09:22:43;102590.19;;;17.46;46.52
42111;BME280;27766;52.174;5.456;2023-05-19T09:25:32;102586.53;;;17.36;47.62
42111;BME280;27766;52.174;5.456;2023-05-19T09:28:00;102585.34;;;17.17;46.81
42111;BME280;27766;52.174;5.456;2023-05-19T09:30:27;102587.28;;;17.27;47.12
42111;BME280;27766;52.174;5.456;2023-05-19T09:32:54;102589.94;;;17.32;47.83
42111;BME280;27766;52.174;5.456;2023-05-19T09:35:21;102587.59;;;17.46;46.26
42111;BME280;27766;52.174;5.456;2023-05-19T09:37:49;102572.91;;;17.55;46.19
42111;BME280;27766;52.174;5.456;2023-05-19T09:40:16;102573.28;;;17.79;45.74
42111;BME280;27766;52.174;5.456;2023-05-19T09:42:43;102563.84;;;17.90;45.59
42111;BME280;27766;52.174;5.456;2023-05-19T09:45:10;102569.13;;;17.92;43.12
42111;BME280;27766;52.174;5.456;2023-05-19T09:47:40;102567.38;;;17.94;41.66
42111;BME280;27766;52.174;5.456;2023-05-19T09:50:10;102578.19;;;18.14;42.67
42111;BME280;27766;52.174;5.456;2023-05-19T09:52:43;102581.84;;;18.25;44.10
42111;BME280;27766;52.174;5.456;2023-05-19T09:55:14;102573.13;;;18.26;41.55
42111;BME280;27766;52.174;5.456;2023-05-19T09:57:43;102574.84;;;18.26;42.50
42111;BME280;27766;52.174;5.456;2023-05-19T10:00:11;102565.22;;;18.25;43.75
42111;BME280;27766;52.174;5.456;2023-05-19T10:02:44;102567.13;;;18.33;44.26
42111;BME280;27766;52.174;5.456;2023-05-19T10:05:16;102568.84;;;18.33;44.18
42111;BME280;27766;52.174;5.456;2023-05-19T10:07:49;102562.78;;;18.37;45.00
42111;BME280;27766;52.174;5.456;2023-05-19T10:10:17;102568.78;;;18.28;44.11
42111;BME280;27766;52.174;5.456;2023-05-19T10:12:48;102566.28;;;18.38;43.90
42111;BME280;27766;52.174;5.456;2023-05-19T10:15:20;102561.81;;;18.29;45.58
42111;BME280;27766;52.174;5.456;2023-05-19T10:17:49;102559.25;;;18.35;44.94
42111;BME280;27766;52.174;5.456;2023-05-19T10:20:17;102548.03;;;18.45;45.71
42111;BME280;27766;52.174;5.456;2023-05-19T10:22:46;102549.91;;;18.56;45.45
42111;BME280;27766;52.174;5.456;2023-05-19T10:25:14;102555.31;;;18.71;43.22
42111;BME280;27766;52.174;5.456;2023-05-19T10:28:03;102544.75;;;18.62;44.01
42111;BME280;27766;52.174;5.456;2023-05-19T10:30:46;102545.50;;;18.55;42.45
42111;BME280;27766;52.174;5.456;2023-05-19T10:33:17;102543.81;;;18.58;42.95
42111;BME280;27766;52.174;5.456;2023-05-19T10:36:01;102542.13;;;18.65;42.31
42111;BME280;27766;52.174;5.456;2023-05-19T10:38:41;102545.63;;;18.62;43.01
42111;BME280;27766;52.174;5.456;2023-05-19T10:41:33;102543.16;;;18.78;42.83
42111;BME280;27766;52.174;5.456;2023-05-19T10:46:47;102527.00;;;19.21;43.44
42111;BME280;27766;52.174;5.456;2023-05-19T10:49:21;102527.16;;;19.41;42.71
42111;BME280;27766;52.174;5.456;2023-05-19T10:51:51;102517.44;;;19.32;42.06
42111;BME280;27766;52.174;5.456;2023-05-19T10:54:44;102525.41;;;19.41;42.17
42111;BME280;27766;52.174;5.456;2023-05-19T10:57:14;102520.97;;;19.34;42.20
42111;BME280;27766;52.174;5.456;2023-05-19T10:59:43;102515.75;;;19.37;43.39
42111;BME280;27766;52.174;5.456;2023-05-19T11:05:13;102521.78;;;19.25;42.30
42111;BME280;27766;52.174;5.456;2023-05-19T11:07:51;102521.59;;;19.04;41.03
42111;BME280;27766;52.174;5.456;2023-05-19T11:10:23;102523.28;;;18.97;42.07
42111;BME280;27766;52.174;5.456;2023-05-19T11:12:51;102520.66;;;18.97;40.74
42111;BME280;27766;52.174;5.456;2023-05-19T11:15:24;102517.84;;;18.80;40.36
42111;BME280;27766;52.174;5.456;2023-05-19T11:17:52;102505.78;;;18.97;39.03
42111;BME280;27766;52.174;5.456;2023-05-19T11:20:24;102515.72;;;19.34;39.99
42111;BME280;27766;52.174;5.456;2023-05-19T11:23:05;102507.00;;;19.37;39.78
42111;BME280;27766;52.174;5.456;2023-05-19T11:25:49;102507.19;;;19.63;40.02
42111;BME280;27766;52.174;5.456;2023-05-19T11:28:19;102514.38;;;19.87;36.70
42111;BME280;27766;52.174;5.456;2023-05-19T11:30:53;102506.53;;;19.97;38.25
42111;BME280;27766;52.174;5.456;2023-05-19T11:33:20;102499.59;;;20.08;36.53
42111;BME280;27766;52.174;5.456;2023-05-19T11:35:55;102495.16;;;19.95;36.40
42111;BME280;27766;52.174;5.456;2023-05-19T11:38:26;102491.72;;;20.06;36.16
42111;BME280;27766;52.174;5.456;2023-05-19T11:40:54;102492.59;;;20.13;36.17
42111;BME280;27766;52.174;5.456;2023-05-19T11:43:23;102495.22;;;20.10;36.98
42111;BME280;27766;52.174;5.456;2023-05-19T11:45:52;102500.59;;;20.36;36.61
42111;BME280;27766;52.174;5.456;2023-05-19T11:48:20;102502.41;;;20.67;36.02
42111;BME280;27766;52.174;5.456;2023-05-19T11:50:48;102486.69;;;21.24;37.01
42111;BME280;27766;52.174;5.456;2023-05-19T11:53:16;102488.38;;;21.90;38.14
42111;BME280;27766;52.174;5.456;2023-05-19T11:55:46;102478.75;;;21.71;38.03
42111;BME280;27766;52.174;5.456;2023-05-19T11:58:15;102484.66;;;22.44;37.10
42111;BME280;27766;52.174;5.456;2023-05-19T12:00:43;102478.41;;;22.54;38.29
42111;BME280;27766;52.174;5.456;2023-05-19T12:03:13;102479.16;;;22.76;37.60
42111;BME280;27766;52.174;5.456;2023-05-19T12:05:44;102476.56;;;22.69;37.73
42111;BME280;27766;52.174;5.456;2023-05-19T12:08:17;102487.06;;;22.80;37.55
42111;BME280;27766;52.174;5.456;2023-05-19T12:10:48;102487.03;;;22.83;38.11
42111;BME280;27766;52.174;5.456;2023-05-19T12:13:18;102491.63;;;22.50;38.28
42111;BME280;27766;52.174;5.456;2023-05-19T12:15:49;102467.00;;;22.54;38.29
42111;BME280;27766;52.174;5.456;2023-05-19T12:18:18;102484.56;;;22.59;37.53
42111;BME280;27766;52.174;5.456;2023-05-19T12:20:46;102482.97;;;22.26;38.47
42111;BME280;27766;52.174;5.456;2023-05-19T12:23:13;102484.63;;;22.42;37.50
42111;BME280;27766;52.174;5.456;2023-05-19T12:25:40;102475.84;;;22.34;37.40
42111;BME280;27766;52.174;5.456;2023-05-19T12:28:08;102482.88;;;22.44;37.52
42111;BME280;27766;52.174;5.456;2023-05-19T12:30:36;102476.63;;;22.61;36.32
42111;BME280;27766;52.174;5.456;2023-05-19T12:33:04;102470.56;;;22.34;37.54
42111;BME280;27766;52.174;5.456;2023-05-19T12:35:31;102458.31;;;22.33;37.10
42111;BME280;27766;52.174;5.456;2023-05-19T12:38:06;102465.59;;;21.49;36.95
42111;BME280;27766;52.174;5.456;2023-05-19T12:40:34;102464.75;;;21.21;38.74
42111;BME280;27766;52.174;5.456;2023-05-19T12:43:02;102466.50;;;21.39;38.10
42111;BME280;27766;52.174;5.456;2023-05-19T12:45:38;102464.72;;;21.70;37.79
42111;BME280;27766;52.174;5.456;2023-05-19T12:48:10;102451.25;;;22.34;37.43
42111;BME280;27766;52.174;5.456;2023-05-19T12:50:40;102444.72;;;22.92;36.13
42111;BME280;27766;52.174;5.456;2023-05-19T12:53:09;102449.75;;;23.23;35.89
42111;BME280;27766;52.174;5.456;2023-05-19T12:55:38;102450.16;;;23.71;34.16
42111;BME280;27766;52.174;5.456;2023-05-19T12:58:14;102441.13;;;23.86;33.92
42111;BME280;27766;52.174;5.456;2023-05-19T13:00:43;102445.09;;;24.22;33.29
42111;BME280;27766;52.174;5.456;2023-05-19T13:03:16;102443.06;;;24.41;32.55
42111;BME280;27766;52.174;5.456;2023-05-19T13:05:47;102430.16;;;24.78;32.21
42111;BME280;27766;52.174;5.456;2023-05-19T13:08:19;102444.59;;;24.57;32.82
42111;BME280;27766;52.174;5.456;2023-05-19T13:10:47;102439.91;;;24.76;32.71
42111;BME280;27766;52.174;5.456;2023-05-19T13:13:16;102441.47;;;24.30;32.28
42111;BME280;27766;52.174;5.456;2023-05-19T13:15:45;102446.22;;;24.03;31.91
42111;BME280;27766;52.174;5.456;2023-05-19T13:18:15;102438.53;;;23.85;32.58
42111;BME280;27766;52.174;5.456;2023-05-19T13:20:44;102441.84;;;24.01;32.70
42111;BME280;27766;52.174;5.456;2023-05-19T13:23:13;102434.22;;;23.75;32.92